This is the latest recevied weather packets stored in our database for station/object KD5BIG-13. If no packets are shown the sender has not sent any weather packets the latest 10 day(s).
| Time | Temp. | Humidity | Pressure | Rain* | Wind** | Luminosity | Snow |
|---|---|---|---|---|---|---|---|
| 1777769289 | 15.56° C | 69% | 1022.6 hPa | 0 mm | - | 2 W/m² | - |
| 1777768987 | 16.11° C | 69% | 1022.2 hPa | 0 mm | - | 4 W/m² | - |
| 1777768684 | 16.67° C | 66% | 1022.4 hPa | 0 mm | - | 6 W/m² | - |
| 1777768381 | 17.22° C | 62% | 1022.4 hPa | 0 mm | - | 9 W/m² | - |
| 1777768078 | 17.22° C | 61% | 1022.3 hPa | 0 mm | - | 12 W/m² | - |
| 1777767774 | 17.78° C | 60% | 1022.3 hPa | 0 mm | - | 15 W/m² | - |
| 1777767470 | 18.33° C | 56% | 1022.1 hPa | 0 mm | - | 18 W/m² | - |
| 1777767167 | 18.89° C | 56% | 1022.4 hPa | 0 mm | - | 21 W/m² | - |
| 1777766865 | 19.44° C | 49% | 1022.1 hPa | 0 mm | - | 23 W/m² | - |
| 1777766562 | 19.44° C | 47% | 1022.1 hPa | 0 mm | - | 26 W/m² | - |
| 1777766259 | 20° C | 45% | 1022.3 hPa | 0 mm | - | 28 W/m² | - |
| 1777765957 | 20° C | 44% | 1022.2 hPa | 0 mm | - | 30 W/m² | - |
| 1777765653 | 20° C | 44% | 1022.1 hPa | 0 mm | - | 31 W/m² | - |
| 1777765350 | 20° C | 42% | 1022.2 hPa | 0 mm | - | 33 W/m² | - |
| 1777765046 | 20° C | 42% | 1022 hPa | 0 mm | - | 34 W/m² | - |
| 1777764743 | 20° C | 44% | 1022.1 hPa | 0 mm | - | 36 W/m² | - |
| 1777764439 | 20.56° C | 42% | 1021.9 hPa | 0 mm | - | 37 W/m² | - |
| 1777764136 | 20.56° C | 44% | 1021.8 hPa | 0 mm | - | 38 W/m² | - |
| 1777763833 | 20.56° C | 43% | 1021.8 hPa | 0 mm | - | 41 W/m² | - |
| 1777763531 | 20.56° C | 44% | 1021.8 hPa | 0 mm | - | 40 W/m² | - |
| 1777763229 | 20.56° C | 43% | 1021.7 hPa | 0 mm | - | 42 W/m² | - |
| 1777762927 | 20.56° C | 40% | 1021.8 hPa | 0 mm | - | 42 W/m² | - |
| 1777762622 | 20.56° C | 41% | 1021.7 hPa | 0 mm | - | 42 W/m² | - |
| 1777762320 | 20.56° C | 41% | 1021.8 hPa | 0 mm | - | 43 W/m² | - |
| 1777762016 | 20.56° C | 43% | 1021.6 hPa | 0 mm | - | 44 W/m² | - |
* Rain latest hour (hover to see other rain measurements)
** Current wind speed in m/s (hover to see current wind gust speed)